Página principal
METAR-TAF:

METAR-TAF

Aeroportos :

Koror, Babeldaob, Palau

latitude: 07-22N, longitude: 134-32E, altura: 54 m

Observação actual do tempo

O boletim foi feito há 23 minutos, às 23:50 UTC
Vento 10 kt de oes-noroeste com rajadas de 15 kt
Temperatura 29°C
Humidade 74%
Pressão
Visibilidade: 2983 m
Nuvens dispersasa uma altura de 1600 ft, Cumulus congestus.
Nuvens fragmentadasa uma altura de 12000 ft
Nuvens fragmentadasa uma altura de 30000 ft

METAR: PTRO 192350Z 29010G15KT 15SM SCT016TCU BKN120 BKN300 29/24 2983 RMK TCU ALQDS

Hora: 09:13 (00:13 UTC)

Previsão

O boletim foi feito há 44 minutos, às 23:29 UTC
Previsão válida de 20 às 00 UTC a 20 às 24 UTC
Vento 13 kt de oeste com rajadas de 23 kt
Visibilidade: 10 km
Nuvens dispersasa uma altura de 1600 ft
Nuvens dispersasa uma altura de 3000 ft
Nuvens fragmentadasa uma altura de 12000 ft
aguaceiros nas vizinhanças

TAF: PTRO 192329Z 2000/2024 28013G23KT P6SM VCSH SCT016 SCT030 BKN120

Observações e previsões do tempo de mais de 4000 aeroportos (mensagens METAR e TAF).

As estações disponíveis são os pontos amarelos e vermelhos sobre o mapa.

Mova o rato sobre o mapa para ver o nome da estação.

Depois clique no ponto para visualizar as observações e previsões meteorológicas.

Para alterar o mapa : clique nos botões verdes com uma cruz preta para aumentar o zoom; no botão verde com uma pitada de zoom; ou nas setas verdes para mapas adjacentes.


METAR-TAF: